createdAt,value
2023-01-13T00:01:12.643Z,4.97
2023-01-13T00:03:41.176Z,5.07
2023-01-13T00:06:10.960Z,5.20
2023-01-13T00:08:39.088Z,5.43
2023-01-13T00:11:07.875Z,5.37
2023-01-13T00:13:36.654Z,5.27
2023-01-13T00:16:06.877Z,5.43
2023-01-13T00:18:37.648Z,4.90
2023-01-13T00:21:07.620Z,5.03
2023-01-13T00:23:37.052Z,5.00
2023-01-13T00:26:07.964Z,4.80
2023-01-13T00:28:37.355Z,4.43
2023-01-13T00:31:09.069Z,4.63
2023-01-13T00:33:39.289Z,3.50
2023-01-13T00:36:09.838Z,3.70
2023-01-13T00:38:39.044Z,3.60
2023-01-13T00:41:09.033Z,3.43
2023-01-13T00:43:37.711Z,3.40
2023-01-13T00:46:07.165Z,3.23
2023-01-13T00:48:35.744Z,3.10
2023-01-13T00:51:07.661Z,2.50
2023-01-13T00:53:38.401Z,2.50
2023-01-13T00:56:09.924Z,2.17
2023-01-13T00:58:38.432Z,1.80
2023-01-13T01:01:09.672Z,1.87
2023-01-13T01:03:38.417Z,1.80
2023-01-13T01:06:09.934Z,1.63
2023-01-13T01:08:38.135Z,1.90
2023-01-13T01:11:08.667Z,1.67
2023-01-13T01:13:37.789Z,1.60
2023-01-13T01:16:07.984Z,1.60
2023-01-13T01:18:37.477Z,1.60
2023-01-13T01:21:08.101Z,1.50
2023-01-13T01:23:37.427Z,1.30
2023-01-13T01:26:08.116Z,1.30
2023-01-13T01:28:36.484Z,1.30
2023-01-13T01:31:07.726Z,1.60
2023-01-13T01:33:36.056Z,1.27
2023-01-13T01:36:05.043Z,1.17
2023-01-13T01:38:34.621Z,1.30
2023-01-13T01:41:03.120Z,1.30
2023-01-13T01:44:02.893Z,1.30
2023-01-13T01:46:33.692Z,1.30
2023-01-13T01:49:08.784Z,1.20
2023-01-13T01:51:40.236Z,1.23
2023-01-13T01:54:12.564Z,0.93
2023-01-13T01:56:44.721Z,1.00
2023-01-13T01:59:13.776Z,0.80
2023-01-13T02:01:44.407Z,1.00
2023-01-13T02:04:16.835Z,0.90
2023-01-13T02:06:47.955Z,0.90
2023-01-13T02:09:18.587Z,1.00
2023-01-13T02:12:04.335Z,1.00
2023-01-13T02:14:35.549Z,1.00
2023-01-13T02:17:27.299Z,1.17
2023-01-13T02:20:35.248Z,1.20
2023-01-13T02:23:46.074Z,1.47
2023-01-13T02:26:40.916Z,1.20
2023-01-13T02:29:35.287Z,1.50
2023-01-13T02:32:11.769Z,1.40
2023-01-13T02:34:44.398Z,1.47
2023-01-13T02:37:18.479Z,1.50
2023-01-13T02:39:56.709Z,1.77
2023-01-13T02:42:52.036Z,1.90
2023-01-13T02:45:25.406Z,2.00
2023-01-13T02:47:58.257Z,1.97
2023-01-13T02:50:32.230Z,2.13
2023-01-13T02:53:04.084Z,2.60
2023-01-13T02:55:36.512Z,2.57
2023-01-13T02:58:07.614Z,2.60
2023-01-13T03:00:37.663Z,3.10
2023-01-13T03:03:07.287Z,3.30
2023-01-13T03:05:36.857Z,3.20
2023-01-13T03:08:31.234Z,3.30
2023-01-13T03:11:05.215Z,3.40
2023-01-13T03:13:47.165Z,3.60
2023-01-13T03:16:22.384Z,3.53
2023-01-13T03:19:02.911Z,4.80
2023-01-13T03:21:40.323Z,4.27
2023-01-13T03:24:15.604Z,4.17
2023-01-13T03:26:47.936Z,4.10
2023-01-13T03:29:22.335Z,4.57
2023-01-13T03:32:08.294Z,4.60
2023-01-13T03:34:45.971Z,4.13
2023-01-13T03:37:16.603Z,4.50
2023-01-13T03:39:48.921Z,4.40
2023-01-13T03:42:22.024Z,4.07
2023-01-13T03:44:53.704Z,3.80
2023-01-13T03:47:26.703Z,3.97
2023-01-13T03:50:02.243Z,4.73
2023-01-13T03:52:34.798Z,4.00
2023-01-13T03:55:08.324Z,4.13
2023-01-13T03:57:41.440Z,4.30
2023-01-13T04:00:13.589Z,4.13
2023-01-13T04:02:51.665Z,4.10
2023-01-13T04:05:21.793Z,4.00
2023-01-13T04:07:57.924Z,3.87
2023-01-13T04:10:31.369Z,4.10
2023-01-13T04:13:04.473Z,3.77
2023-01-13T04:15:36.484Z,4.30
2023-01-13T04:18:16.499Z,3.30
2023-01-13T04:20:48.614Z,3.53
2023-01-13T04:23:17.578Z,3.80
2023-01-13T04:25:46.981Z,4.53
2023-01-13T04:28:16.448Z,3.93
2023-01-13T04:30:45.849Z,3.97
2023-01-13T04:33:14.672Z,4.47
2023-01-13T04:35:43.539Z,4.50
2023-01-13T04:38:15.269Z,3.93
2023-01-13T04:40:43.958Z,4.20
2023-01-13T04:43:12.527Z,4.40
2023-01-13T04:45:40.834Z,4.37
2023-01-13T04:48:09.233Z,4.70
2023-01-13T04:50:37.610Z,5.40
2023-01-13T04:53:05.974Z,5.13
2023-01-13T04:55:35.765Z,4.30
2023-01-13T04:58:05.294Z,3.77
2023-01-13T05:00:33.583Z,4.43
2023-01-13T05:03:02.244Z,4.47
2023-01-13T05:05:31.418Z,4.33
2023-01-13T05:07:59.883Z,4.07
2023-01-13T05:10:28.828Z,4.17
2023-01-13T05:13:16.003Z,3.97
2023-01-13T05:16:02.078Z,4.27
2023-01-13T05:18:32.105Z,3.90
2023-01-13T05:21:00.425Z,3.83
2023-01-13T05:24:01.316Z,4.27
2023-01-13T05:26:29.481Z,4.03
2023-01-13T05:28:58.998Z,3.83
2023-01-13T05:31:27.285Z,4.07
2023-01-13T05:33:55.532Z,3.93
2023-01-13T05:36:23.697Z,4.37
2023-01-13T05:38:53.387Z,4.30
2023-01-13T05:41:41.763Z,4.50
2023-01-13T05:44:11.552Z,4.27
2023-01-13T05:46:40.667Z,4.80
2023-01-13T05:49:08.859Z,5.20
2023-01-13T05:51:37.041Z,4.73
2023-01-13T05:54:05.368Z,5.67
2023-01-13T05:56:33.784Z,5.47
2023-01-13T05:59:02.264Z,5.03
2023-01-13T06:01:32.031Z,5.80
2023-01-13T06:04:00.321Z,4.90
2023-01-13T06:06:28.490Z,5.63
2023-01-13T06:08:57.001Z,5.20
2023-01-13T06:11:25.301Z,6.03
2023-01-13T06:13:53.604Z,5.43
2023-01-13T06:16:22.060Z,6.37
2023-01-13T06:18:51.591Z,5.53
2023-01-13T06:21:19.929Z,4.80
2023-01-13T06:23:48.221Z,5.40
2023-01-13T06:26:20.785Z,4.83
2023-01-13T06:28:50.143Z,5.17
2023-01-13T06:31:18.591Z,4.67
2023-01-13T06:33:51.040Z,4.90
2023-01-13T06:36:23.860Z,4.90
2023-01-13T06:38:56.209Z,5.77
2023-01-13T06:41:47.456Z,4.93
2023-01-13T06:44:15.215Z,5.03
2023-01-13T06:46:43.551Z,18.03
2023-01-13T06:49:11.746Z,7.70
2023-01-13T06:51:41.598Z,5.57
2023-01-13T06:54:10.043Z,4.90
2023-01-13T06:56:38.177Z,4.63
2023-01-13T06:59:06.495Z,5.23
2023-01-13T07:01:34.906Z,5.10
2023-01-13T07:04:03.161Z,4.30
2023-01-13T07:06:31.432Z,4.83
2023-01-13T07:09:01.194Z,4.90
2023-01-13T07:11:29.276Z,5.20
2023-01-13T07:14:15.100Z,4.67
2023-01-13T07:16:44.773Z,5.30
2023-01-13T07:19:13.369Z,4.70
2023-01-13T07:21:41.636Z,5.73
2023-01-13T07:24:11.269Z,4.80
2023-01-13T07:26:39.565Z,4.90
2023-01-13T07:29:07.982Z,4.87
2023-01-13T07:31:36.845Z,4.77
2023-01-13T07:34:05.292Z,5.33
2023-01-13T07:36:33.673Z,5.23
2023-01-13T07:39:02.101Z,5.07
2023-01-13T07:41:49.233Z,4.90
2023-01-13T07:44:17.664Z,5.27
2023-01-13T07:46:45.990Z,5.37
2023-01-13T07:49:14.583Z,5.63
2023-01-13T07:51:42.892Z,5.23
2023-01-13T07:54:11.060Z,5.37
2023-01-13T07:56:40.849Z,5.13
2023-01-13T07:59:09.170Z,5.80
2023-01-13T08:01:37.460Z,5.17
2023-01-13T08:04:05.852Z,5.97
2023-01-13T08:06:34.220Z,5.67
2023-01-13T08:09:02.399Z,5.80
2023-01-13T08:11:30.542Z,4.83
2023-01-13T08:14:00.391Z,5.50
2023-01-13T08:16:28.556Z,6.03
2023-01-13T08:18:56.871Z,6.10
2023-01-13T08:21:25.155Z,6.17
2023-01-13T08:23:53.318Z,5.57
2023-01-13T08:26:21.727Z,6.83
2023-01-13T08:28:50.023Z,6.43
2023-01-13T08:31:20.268Z,8.13
2023-01-13T08:33:48.623Z,7.53
2023-01-13T08:36:18.664Z,6.13
2023-01-13T08:38:47.128Z,7.53
2023-01-13T08:41:39.053Z,8.20
2023-01-13T08:44:09.383Z,7.97
2023-01-13T08:46:39.275Z,7.87
2023-01-13T08:49:07.515Z,8.10
2023-01-13T08:51:36.070Z,8.17
2023-01-13T08:54:05.285Z,8.20
2023-01-13T08:56:35.530Z,8.70
2023-01-13T08:59:04.037Z,8.43
2023-01-13T09:01:32.575Z,9.73
2023-01-13T09:04:02.232Z,8.87
2023-01-13T09:06:30.348Z,8.87
2023-01-13T09:08:58.888Z,9.10
2023-01-13T09:11:49.739Z,8.17
2023-01-13T09:14:21.837Z,8.47
2023-01-13T09:16:50.079Z,8.47
2023-01-13T09:19:19.695Z,7.73
2023-01-13T09:21:48.140Z,7.33
2023-01-13T09:24:16.516Z,7.93
2023-01-13T09:26:44.844Z,8.47
2023-01-13T09:29:13.320Z,8.00
2023-01-13T09:31:43.995Z,7.87
2023-01-13T09:34:33.572Z,8.23
2023-01-13T09:37:03.579Z,8.17
2023-01-13T09:39:33.154Z,7.07
2023-01-13T09:42:23.688Z,6.80
2023-01-13T09:44:58.557Z,8.40
2023-01-13T09:47:32.517Z,7.53
2023-01-13T09:50:09.563Z,7.60
2023-01-13T09:52:39.557Z,7.57
2023-01-13T09:55:13.239Z,7.63
2023-01-13T09:57:41.644Z,7.17
2023-01-13T10:00:15.574Z,7.03
2023-01-13T10:03:08.348Z,7.47
2023-01-13T10:05:39.161Z,7.17
2023-01-13T10:08:13.184Z,6.50
2023-01-13T10:10:49.312Z,7.50
2023-01-13T10:13:20.939Z,6.83
2023-01-13T10:15:57.020Z,6.40
2023-01-13T10:18:30.609Z,6.90
2023-01-13T10:21:08.362Z,6.10
2023-01-13T10:23:49.562Z,6.37
2023-01-13T10:26:42.098Z,6.67
2023-01-13T10:29:22.440Z,6.20
2023-01-13T10:31:50.673Z,6.50
2023-01-13T10:34:19.301Z,7.63
2023-01-13T10:37:01.031Z,6.77
2023-01-13T10:39:41.494Z,5.70
2023-01-13T10:42:15.196Z,6.53
2023-01-13T10:44:52.053Z,5.93
2023-01-13T10:47:27.226Z,6.43
2023-01-13T10:50:22.717Z,5.80
2023-01-13T10:53:02.726Z,6.70
2023-01-13T10:55:34.410Z,6.40
2023-01-13T10:58:15.357Z,6.63
2023-01-13T11:00:43.814Z,6.43
2023-01-13T11:03:18.114Z,6.53
2023-01-13T11:05:52.026Z,6.27
2023-01-13T11:08:23.198Z,6.33
2023-01-13T11:10:55.631Z,6.43
2023-01-13T11:13:32.195Z,7.10
2023-01-13T11:16:05.879Z,6.33
2023-01-13T11:18:51.895Z,6.10
2023-01-13T11:21:25.832Z,6.20
2023-01-13T11:24:04.292Z,6.60
2023-01-13T11:26:43.798Z,6.07
2023-01-13T11:29:19.606Z,6.50
2023-01-13T11:31:51.519Z,5.83
2023-01-13T11:34:31.865Z,6.73
2023-01-13T11:37:01.706Z,5.23
2023-01-13T11:39:40.862Z,5.60
2023-01-13T11:42:24.591Z,5.87
2023-01-13T11:45:06.451Z,6.07
2023-01-13T11:47:37.034Z,5.63
2023-01-13T11:50:14.982Z,5.87
2023-01-13T11:53:00.306Z,6.07
2023-01-13T11:55:36.533Z,5.40
2023-01-13T11:58:23.796Z,5.37
2023-01-13T12:01:15.389Z,6.37
2023-01-13T12:03:47.634Z,5.40
2023-01-13T12:06:32.824Z,5.37
2023-01-13T12:09:15.795Z,4.67
2023-01-13T12:12:12.064Z,5.43
2023-01-13T12:14:56.638Z,5.00
2023-01-13T12:17:35.358Z,4.93
2023-01-13T12:20:20.266Z,5.27
2023-01-13T12:22:52.997Z,5.17
2023-01-13T12:25:30.690Z,5.40
2023-01-13T12:28:03.847Z,5.03
2023-01-13T12:30:40.657Z,6.03
2023-01-13T12:33:27.409Z,5.60
2023-01-13T12:36:02.345Z,5.30
2023-01-13T12:38:37.731Z,4.50
2023-01-13T12:41:17.928Z,5.33
2023-01-13T12:44:06.714Z,4.70
2023-01-13T12:46:47.605Z,4.27
2023-01-13T12:49:24.637Z,5.00
2023-01-13T12:52:18.556Z,4.63
2023-01-13T12:55:20.735Z,3.97
2023-01-13T12:58:03.968Z,4.63
2023-01-13T13:00:39.639Z,3.90
2023-01-13T13:03:29.915Z,4.63
2023-01-13T13:06:03.062Z,4.33
2023-01-13T13:08:48.224Z,3.57
2023-01-13T13:11:52.843Z,3.80
2023-01-13T13:14:54.305Z,3.30
2023-01-13T13:17:41.648Z,2.93
2023-01-13T13:20:54.165Z,3.17
2023-01-13T13:23:40.654Z,3.07
2023-01-13T13:26:25.136Z,3.10
2023-01-13T13:29:10.141Z,2.97
2023-01-13T13:31:57.596Z,3.10
2023-01-13T13:34:32.712Z,3.03
2023-01-13T13:38:02.614Z,2.60
2023-01-13T13:40:57.768Z,2.97
2023-01-13T13:43:47.159Z,2.90
2023-01-13T13:46:44.572Z,3.33
2023-01-13T13:49:13.647Z,2.80
2023-01-13T13:51:50.302Z,4.07
2023-01-13T13:54:22.626Z,4.60
2023-01-13T13:56:52.593Z,4.13
2023-01-13T13:59:24.560Z,5.03
2023-01-13T14:02:01.914Z,5.07
2023-01-13T14:04:32.520Z,5.57
2023-01-13T14:07:04.596Z,4.57
2023-01-13T14:09:45.391Z,5.33
2023-01-13T14:12:20.071Z,5.40
2023-01-13T14:14:49.810Z,5.83
2023-01-13T14:17:25.495Z,5.33
2023-01-13T14:19:56.900Z,6.03
2023-01-13T14:22:25.183Z,4.80
2023-01-13T14:24:57.945Z,5.60
2023-01-13T14:27:28.525Z,5.77
2023-01-13T14:29:59.341Z,5.30
2023-01-13T14:32:33.734Z,5.43
2023-01-13T14:35:02.279Z,4.37
2023-01-13T14:37:36.357Z,4.67
2023-01-13T14:40:06.862Z,3.87
2023-01-13T14:42:35.717Z,5.33
2023-01-13T14:45:04.597Z,4.53
2023-01-13T14:47:34.976Z,4.67
2023-01-13T14:50:07.056Z,4.93
2023-01-13T14:52:37.164Z,4.87
2023-01-13T14:55:30.679Z,6.93
2023-01-13T14:58:28.447Z,5.40
2023-01-13T15:01:29.401Z,4.13
2023-01-13T15:04:18.783Z,4.20
2023-01-13T15:06:52.529Z,4.20
2023-01-13T15:09:26.206Z,4.37
2023-01-13T15:11:58.902Z,3.80
2023-01-13T15:14:31.447Z,3.70
2023-01-13T15:16:59.895Z,3.50
2023-01-13T15:19:28.042Z,3.30
2023-01-13T15:21:56.316Z,3.57
2023-01-13T15:24:24.660Z,2.53
2023-01-13T15:26:52.897Z,3.43
2023-01-13T15:29:24.369Z,3.60
2023-01-13T15:31:52.770Z,3.20
2023-01-13T15:34:22.311Z,3.80
2023-01-13T15:36:50.511Z,3.17
2023-01-13T15:39:18.873Z,3.33
2023-01-13T15:42:04.897Z,3.57
2023-01-13T15:44:51.754Z,3.10
2023-01-13T15:47:28.759Z,3.27
2023-01-13T15:49:57.027Z,3.10
2023-01-13T15:52:26.460Z,3.40
2023-01-13T15:54:55.825Z,3.43
2023-01-13T15:57:25.888Z,3.40
2023-01-13T15:59:58.062Z,3.47
2023-01-13T16:02:26.763Z,3.23
2023-01-13T16:04:55.102Z,3.90
2023-01-13T16:07:25.139Z,3.30
2023-01-13T16:09:55.998Z,3.70
2023-01-13T16:12:24.099Z,3.80
2023-01-13T16:14:52.330Z,4.00
2023-01-13T16:17:24.432Z,4.00
2023-01-13T16:19:53.066Z,3.93
2023-01-13T16:22:21.623Z,4.07
2023-01-13T16:24:49.811Z,3.80
2023-01-13T16:27:19.961Z,3.60
2023-01-13T16:29:49.347Z,4.00
2023-01-13T16:32:17.676Z,4.20
2023-01-13T16:34:47.643Z,3.63
2023-01-13T16:37:21.079Z,3.50
2023-01-13T16:39:49.363Z,4.40
2023-01-13T16:42:17.923Z,4.30
2023-01-13T16:44:46.799Z,4.37
2023-01-13T16:47:17.090Z,3.83
2023-01-13T16:49:49.922Z,3.60
2023-01-13T16:52:17.983Z,3.47
2023-01-13T16:54:46.265Z,4.60
2023-01-13T16:57:18.415Z,4.63
2023-01-13T16:59:46.905Z,3.70
2023-01-13T17:02:19.715Z,3.83
2023-01-13T17:04:50.654Z,3.60
2023-01-13T17:07:19.461Z,4.10
2023-01-13T17:09:47.850Z,3.80
2023-01-13T17:12:16.177Z,4.13
2023-01-13T17:14:44.788Z,4.17
2023-01-13T17:17:23.174Z,4.80
2023-01-13T17:19:54.010Z,3.90
2023-01-13T17:22:22.838Z,4.60
2023-01-13T17:24:51.262Z,4.93
2023-01-13T17:27:21.338Z,4.43
2023-01-13T17:29:49.696Z,4.47
2023-01-13T17:32:18.648Z,5.10
2023-01-13T17:34:47.380Z,4.80
2023-01-13T17:37:17.978Z,5.13
2023-01-13T17:39:48.538Z,5.50
2023-01-13T17:42:17.270Z,5.57
2023-01-13T17:44:46.993Z,4.13
2023-01-13T17:47:16.905Z,5.03
2023-01-13T17:49:45.340Z,4.50
2023-01-13T17:52:13.748Z,4.57
2023-01-13T17:54:44.065Z,4.00
2023-01-13T17:57:12.316Z,4.70
2023-01-13T17:59:41.532Z,3.77
2023-01-13T18:02:13.410Z,3.10
2023-01-13T18:04:42.093Z,3.43
2023-01-13T18:07:10.257Z,3.50
2023-01-13T18:09:38.505Z,3.93
2023-01-13T18:12:08.499Z,3.60
2023-01-13T18:14:36.674Z,3.50
2023-01-13T18:17:04.979Z,4.03
2023-01-13T18:19:51.106Z,3.60
2023-01-13T18:22:36.877Z,3.07
2023-01-13T18:25:22.844Z,3.57
2023-01-13T18:27:52.665Z,2.80
2023-01-13T18:30:21.005Z,3.60
2023-01-13T18:32:49.252Z,3.53
2023-01-13T18:35:17.678Z,3.20
2023-01-13T18:37:46.134Z,2.90
2023-01-13T18:40:15.127Z,3.43
2023-01-13T18:42:55.189Z,3.27
2023-01-13T18:45:26.830Z,3.40
2023-01-13T18:47:57.202Z,3.13
2023-01-13T18:50:26.249Z,3.83
2023-01-13T18:52:54.453Z,3.53
2023-01-13T18:55:23.001Z,2.87
2023-01-13T18:57:52.142Z,3.00
2023-01-13T19:00:22.069Z,2.87
2023-01-13T19:05:35.812Z,3.50
2023-01-13T19:08:04.664Z,2.80
2023-01-13T19:10:33.059Z,2.77
2023-01-13T19:13:02.428Z,2.73
2023-01-13T19:15:31.105Z,2.80
2023-01-13T19:18:01.561Z,3.10
2023-01-13T19:20:30.182Z,2.63
2023-01-13T19:22:58.593Z,3.27
2023-01-13T19:25:26.770Z,3.10
2023-01-13T19:27:55.132Z,3.30
2023-01-13T19:30:23.526Z,2.97
2023-01-13T19:32:51.650Z,3.40
2023-01-13T19:35:21.440Z,2.60
2023-01-13T19:37:49.751Z,3.17
2023-01-13T19:40:18.189Z,2.97
2023-01-13T19:43:04.919Z,2.23
2023-01-13T19:45:35.406Z,3.60
2023-01-13T19:48:05.700Z,2.33
2023-01-13T19:50:38.983Z,2.80
2023-01-13T19:53:07.601Z,2.80
2023-01-13T19:55:35.903Z,2.63
2023-01-13T19:58:04.377Z,2.83
2023-01-13T20:00:32.744Z,2.27
2023-01-13T20:03:03.599Z,2.27
2023-01-13T20:05:32.529Z,2.50
2023-01-13T20:08:02.312Z,2.30
2023-01-13T20:10:31.619Z,2.70
2023-01-13T20:12:59.815Z,3.20
2023-01-13T20:15:28.182Z,2.90
2023-01-13T20:17:58.055Z,3.00
2023-01-13T20:20:27.595Z,2.50
2023-01-13T20:22:55.999Z,3.13
2023-01-13T20:25:25.869Z,4.13
2023-01-13T20:27:54.251Z,2.60
2023-01-13T20:30:23.102Z,2.60
2023-01-13T20:32:52.160Z,2.77
2023-01-13T20:35:20.661Z,2.33
2023-01-13T20:37:49.098Z,2.50
2023-01-13T20:40:18.511Z,3.50
2023-01-13T20:42:48.114Z,2.40
2023-01-13T20:45:21.034Z,2.47
2023-01-13T20:47:49.357Z,2.13
2023-01-13T20:50:17.954Z,2.03
2023-01-13T20:52:47.091Z,1.50
2023-01-13T20:55:17.388Z,1.77
2023-01-13T20:57:50.590Z,1.90
2023-01-13T21:00:22.386Z,1.40
2023-01-13T21:02:51.039Z,2.30
2023-01-13T21:05:21.050Z,2.60
2023-01-13T21:07:50.844Z,2.90
2023-01-13T21:10:19.275Z,3.30
2023-01-13T21:13:21.283Z,2.13
2023-01-13T21:15:50.128Z,2.50
2023-01-13T21:18:35.911Z,2.80
2023-01-13T21:21:13.350Z,2.40
2023-01-13T21:23:42.653Z,2.60
2023-01-13T21:26:12.201Z,2.70
2023-01-13T21:28:41.763Z,2.40
2023-01-13T21:31:11.096Z,2.67
2023-01-13T21:33:40.002Z,2.80
2023-01-13T21:36:09.963Z,2.40
2023-01-13T21:38:38.284Z,3.13
2023-01-13T21:41:08.470Z,2.40
2023-01-13T21:43:55.613Z,2.67
2023-01-13T21:46:43.189Z,2.10
2023-01-13T21:49:11.624Z,2.47
2023-01-13T21:51:39.919Z,2.73
2023-01-13T21:54:08.207Z,2.87
2023-01-13T21:56:36.507Z,2.63
2023-01-13T21:59:04.802Z,3.20
2023-01-13T22:01:34.801Z,3.10
2023-01-13T22:04:15.621Z,3.07
2023-01-13T22:06:44.029Z,2.83
2023-01-13T22:09:12.926Z,2.70
2023-01-13T22:11:41.243Z,2.60
2023-01-13T22:14:10.373Z,2.70
2023-01-13T22:16:42.496Z,2.50
2023-01-13T22:19:11.763Z,2.40
2023-01-13T22:21:40.225Z,2.60
2023-01-13T22:24:08.876Z,2.87
2023-01-13T22:26:37.282Z,2.80
2023-01-13T22:29:05.644Z,2.43
2023-01-13T22:31:33.992Z,2.47
2023-01-13T22:34:04.061Z,2.50
2023-01-13T22:36:32.252Z,2.53
2023-01-13T22:39:01.571Z,2.83
2023-01-13T22:41:29.856Z,2.93
2023-01-13T22:43:57.991Z,2.57
2023-01-13T22:46:26.429Z,2.97
2023-01-13T22:48:56.026Z,2.70
2023-01-13T22:51:26.706Z,2.73
2023-01-13T22:53:55.708Z,2.93
2023-01-13T22:56:26.071Z,3.07
2023-01-13T22:58:55.341Z,3.30
2023-01-13T23:01:24.873Z,3.30
2023-01-13T23:03:53.964Z,2.73
2023-01-13T23:06:23.788Z,3.23
2023-01-13T23:08:54.004Z,3.37
2023-01-13T23:11:24.982Z,3.73
2023-01-13T23:13:58.112Z,3.27
2023-01-13T23:16:27.066Z,4.00
2023-01-13T23:18:55.480Z,2.80
2023-01-13T23:21:26.324Z,3.17
2023-01-13T23:23:58.462Z,2.67
2023-01-13T23:26:27.810Z,3.43
2023-01-13T23:29:00.076Z,2.93
2023-01-13T23:31:28.709Z,3.40
2023-01-13T23:33:56.840Z,3.37
2023-01-13T23:36:27.332Z,4.03
2023-01-13T23:38:58.940Z,2.33
2023-01-13T23:41:31.069Z,4.23
2023-01-13T23:44:01.587Z,4.43
2023-01-13T23:46:32.944Z,3.80
2023-01-13T23:49:03.353Z,4.43
2023-01-13T23:51:32.050Z,3.93
2023-01-13T23:54:01.690Z,4.03
2023-01-13T23:56:32.191Z,3.60
2023-01-13T23:59:00.692Z,3.30
